sensor_id;sensor_type;location;lat;lon;timestamp;P1;durP1;ratioP1;P2;durP2;ratioP2
40515;SDS011;26216;53.724;9.898;2022-12-18T00:01:01;12.55;;;7.68;;
40515;SDS011;26216;53.724;9.898;2022-12-18T00:03:33;11.80;;;7.13;;
40515;SDS011;26216;53.724;9.898;2022-12-18T00:05:59;13.07;;;7.45;;
40515;SDS011;26216;53.724;9.898;2022-12-18T00:08:25;10.88;;;7.22;;
40515;SDS011;26216;53.724;9.898;2022-12-18T00:10:51;10.85;;;7.32;;
40515;SDS011;26216;53.724;9.898;2022-12-18T00:13:17;10.77;;;6.68;;
40515;SDS011;26216;53.724;9.898;2022-12-18T00:15:44;9.50;;;5.63;;
40515;SDS011;26216;53.724;9.898;2022-12-18T00:18:10;10.35;;;6.68;;
40515;SDS011;26216;53.724;9.898;2022-12-18T00:20:39;13.27;;;6.65;;
40515;SDS011;26216;53.724;9.898;2022-12-18T00:23:06;10.35;;;6.40;;
40515;SDS011;26216;53.724;9.898;2022-12-18T00:25:35;11.55;;;6.85;;
40515;SDS011;26216;53.724;9.898;2022-12-18T00:28:02;10.43;;;5.82;;
40515;SDS011;26216;53.724;9.898;2022-12-18T00:30:29;9.85;;;6.32;;
40515;SDS011;26216;53.724;9.898;2022-12-18T00:32:55;9.85;;;6.40;;
40515;SDS011;26216;53.724;9.898;2022-12-18T00:35:21;9.43;;;6.20;;
40515;SDS011;26216;53.724;9.898;2022-12-18T00:37:47;9.65;;;5.80;;
40515;SDS011;26216;53.724;9.898;2022-12-18T00:40:13;8.90;;;5.97;;
40515;SDS011;26216;53.724;9.898;2022-12-18T00:42:38;9.00;;;5.45;;
40515;SDS011;26216;53.724;9.898;2022-12-18T00:45:23;7.85;;;5.40;;
40515;SDS011;26216;53.724;9.898;2022-12-18T00:47:50;8.98;;;5.70;;
40515;SDS011;26216;53.724;9.898;2022-12-18T00:50:16;10.20;;;5.90;;
40515;SDS011;26216;53.724;9.898;2022-12-18T00:52:43;8.50;;;5.15;;
40515;SDS011;26216;53.724;9.898;2022-12-18T00:55:09;10.35;;;5.65;;
40515;SDS011;26216;53.724;9.898;2022-12-18T00:57:35;8.93;;;5.65;;
40515;SDS011;26216;53.724;9.898;2022-12-18T01:00:02;9.68;;;5.78;;
40515;SDS011;26216;53.724;9.898;2022-12-18T01:02:29;8.60;;;6.07;;
40515;SDS011;26216;53.724;9.898;2022-12-18T01:04:55;9.98;;;5.57;;
40515;SDS011;26216;53.724;9.898;2022-12-18T01:07:21;9.73;;;5.68;;
40515;SDS011;26216;53.724;9.898;2022-12-18T01:09:47;10.68;;;6.13;;
40515;SDS011;26216;53.724;9.898;2022-12-18T01:12:13;9.98;;;6.18;;
40515;SDS011;26216;53.724;9.898;2022-12-18T01:14:39;8.68;;;5.60;;
40515;SDS011;26216;53.724;9.898;2022-12-18T01:17:04;11.38;;;5.88;;
40515;SDS011;26216;53.724;9.898;2022-12-18T01:19:30;10.73;;;6.93;;
40515;SDS011;26216;53.724;9.898;2022-12-18T01:21:57;10.30;;;6.65;;
40515;SDS011;26216;53.724;9.898;2022-12-18T01:24:23;9.20;;;5.45;;
40515;SDS011;26216;53.724;9.898;2022-12-18T01:26:49;11.27;;;6.72;;
40515;SDS011;26216;53.724;9.898;2022-12-18T01:29:15;11.13;;;6.28;;
40515;SDS011;26216;53.724;9.898;2022-12-18T01:31:40;10.52;;;5.93;;
40515;SDS011;26216;53.724;9.898;2022-12-18T01:34:06;8.93;;;5.63;;
40515;SDS011;26216;53.724;9.898;2022-12-18T01:36:34;9.38;;;5.88;;
40515;SDS011;26216;53.724;9.898;2022-12-18T01:39:04;8.82;;;5.88;;
40515;SDS011;26216;53.724;9.898;2022-12-18T01:41:32;8.88;;;5.43;;
40515;SDS011;26216;53.724;9.898;2022-12-18T01:47:26;9.45;;;5.88;;
40515;SDS011;26216;53.724;9.898;2022-12-18T01:49:59;9.60;;;5.18;;
40515;SDS011;26216;53.724;9.898;2022-12-18T01:52:31;9.98;;;5.65;;
40515;SDS011;26216;53.724;9.898;2022-12-18T01:54:59;8.95;;;5.38;;
40515;SDS011;26216;53.724;9.898;2022-12-18T01:57:26;8.48;;;5.75;;
40515;SDS011;26216;53.724;9.898;2022-12-18T01:59:53;8.13;;;4.68;;
40515;SDS011;26216;53.724;9.898;2022-12-18T02:02:24;8.30;;;4.95;;
40515;SDS011;26216;53.724;9.898;2022-12-18T02:04:54;8.77;;;5.47;;
40515;SDS011;26216;53.724;9.898;2022-12-18T02:07:22;10.00;;;5.50;;
40515;SDS011;26216;53.724;9.898;2022-12-18T02:15:19;9.52;;;5.20;;
40515;SDS011;26216;53.724;9.898;2022-12-18T02:23:36;10.57;;;5.85;;
40515;SDS011;26216;53.724;9.898;2022-12-18T02:28:37;8.75;;;5.25;;
40515;SDS011;26216;53.724;9.898;2022-12-18T02:31:16;8.48;;;5.18;;
40515;SDS011;26216;53.724;9.898;2022-12-18T02:33:46;7.53;;;5.00;;
40515;SDS011;26216;53.724;9.898;2022-12-18T02:36:14;7.88;;;4.97;;
40515;SDS011;26216;53.724;9.898;2022-12-18T02:38:42;7.68;;;5.05;;
40515;SDS011;26216;53.724;9.898;2022-12-18T02:41:10;7.28;;;5.03;;
40515;SDS011;26216;53.724;9.898;2022-12-18T02:43:36;9.13;;;5.13;;
40515;SDS011;26216;53.724;9.898;2022-12-18T02:46:20;9.23;;;5.25;;
40515;SDS011;26216;53.724;9.898;2022-12-18T02:48:55;9.40;;;6.03;;
40515;SDS011;26216;53.724;9.898;2022-12-18T02:51:53;7.55;;;4.78;;
40515;SDS011;26216;53.724;9.898;2022-12-18T02:54:32;7.47;;;4.95;;
40515;SDS011;26216;53.724;9.898;2022-12-18T02:57:20;8.77;;;5.10;;
40515;SDS011;26216;53.724;9.898;2022-12-18T03:02:39;8.43;;;4.80;;
40515;SDS011;26216;53.724;9.898;2022-12-18T03:05:31;8.48;;;5.18;;
40515;SDS011;26216;53.724;9.898;2022-12-18T03:11:04;9.82;;;5.43;;
40515;SDS011;26216;53.724;9.898;2022-12-18T03:13:41;7.05;;;4.90;;
40515;SDS011;26216;53.724;9.898;2022-12-18T03:16:25;8.75;;;4.95;;
40515;SDS011;26216;53.724;9.898;2022-12-18T03:18:55;7.75;;;4.63;;
40515;SDS011;26216;53.724;9.898;2022-12-18T03:21:41;6.68;;;4.10;;
40515;SDS011;26216;53.724;9.898;2022-12-18T03:24:10;7.95;;;4.22;;
40515;SDS011;26216;53.724;9.898;2022-12-18T03:26:37;6.63;;;4.40;;
40515;SDS011;26216;53.724;9.898;2022-12-18T03:29:10;7.93;;;4.97;;
40515;SDS011;26216;53.724;9.898;2022-12-18T03:31:41;9.38;;;5.45;;
40515;SDS011;26216;53.724;9.898;2022-12-18T03:34:15;6.95;;;4.28;;
40515;SDS011;26216;53.724;9.898;2022-12-18T03:36:47;7.40;;;4.50;;
40515;SDS011;26216;53.724;9.898;2022-12-18T03:39:13;7.25;;;4.70;;
40515;SDS011;26216;53.724;9.898;2022-12-18T03:41:47;8.43;;;5.18;;
40515;SDS011;26216;53.724;9.898;2022-12-18T03:44:28;9.77;;;5.47;;
40515;SDS011;26216;53.724;9.898;2022-12-18T03:49:34;8.45;;;5.15;;
40515;SDS011;26216;53.724;9.898;2022-12-18T03:52:11;11.02;;;5.10;;
40515;SDS011;26216;53.724;9.898;2022-12-18T03:54:51;8.52;;;4.85;;
40515;SDS011;26216;53.724;9.898;2022-12-18T03:57:21;7.80;;;5.47;;
40515;SDS011;26216;53.724;9.898;2022-12-18T03:59:49;8.40;;;5.00;;
40515;SDS011;26216;53.724;9.898;2022-12-18T04:02:19;8.48;;;5.05;;
40515;SDS011;26216;53.724;9.898;2022-12-18T04:04:47;8.43;;;5.25;;
40515;SDS011;26216;53.724;9.898;2022-12-18T04:07:15;9.88;;;5.75;;
40515;SDS011;26216;53.724;9.898;2022-12-18T04:09:42;9.65;;;5.47;;
40515;SDS011;26216;53.724;9.898;2022-12-18T04:12:10;9.50;;;5.55;;
40515;SDS011;26216;53.724;9.898;2022-12-18T04:14:36;7.60;;;4.57;;
40515;SDS011;26216;53.724;9.898;2022-12-18T04:17:02;9.65;;;5.50;;
40515;SDS011;26216;53.724;9.898;2022-12-18T04:19:28;9.20;;;5.13;;
40515;SDS011;26216;53.724;9.898;2022-12-18T04:21:54;8.77;;;5.70;;
40515;SDS011;26216;53.724;9.898;2022-12-18T04:24:20;8.77;;;4.72;;
40515;SDS011;26216;53.724;9.898;2022-12-18T04:26:46;9.43;;;5.00;;
40515;SDS011;26216;53.724;9.898;2022-12-18T04:29:11;7.38;;;4.65;;
40515;SDS011;26216;53.724;9.898;2022-12-18T04:31:37;9.88;;;5.03;;
40515;SDS011;26216;53.724;9.898;2022-12-18T04:34:03;7.25;;;4.93;;
40515;SDS011;26216;53.724;9.898;2022-12-18T04:36:29;8.93;;;4.85;;
40515;SDS011;26216;53.724;9.898;2022-12-18T04:38:55;6.93;;;4.57;;
40515;SDS011;26216;53.724;9.898;2022-12-18T04:41:21;8.18;;;4.60;;
40515;SDS011;26216;53.724;9.898;2022-12-18T04:43:47;10.10;;;5.18;;
40515;SDS011;26216;53.724;9.898;2022-12-18T04:46:13;7.50;;;4.63;;
40515;SDS011;26216;53.724;9.898;2022-12-18T04:48:39;8.13;;;4.50;;
40515;SDS011;26216;53.724;9.898;2022-12-18T04:51:05;8.45;;;5.00;;
40515;SDS011;26216;53.724;9.898;2022-12-18T04:53:31;8.68;;;5.00;;
40515;SDS011;26216;53.724;9.898;2022-12-18T04:56:07;11.30;;;5.47;;
40515;SDS011;26216;53.724;9.898;2022-12-18T04:58:38;8.00;;;4.47;;
40515;SDS011;26216;53.724;9.898;2022-12-18T05:01:06;7.10;;;4.43;;
40515;SDS011;26216;53.724;9.898;2022-12-18T05:03:33;8.93;;;5.10;;
40515;SDS011;26216;53.724;9.898;2022-12-18T05:06:00;10.65;;;4.82;;
40515;SDS011;26216;53.724;9.898;2022-12-18T05:08:26;8.32;;;4.90;;
40515;SDS011;26216;53.724;9.898;2022-12-18T05:10:58;9.30;;;4.75;;
40515;SDS011;26216;53.724;9.898;2022-12-18T05:13:25;9.30;;;5.13;;
40515;SDS011;26216;53.724;9.898;2022-12-18T05:15:52;7.75;;;4.70;;
40515;SDS011;26216;53.724;9.898;2022-12-18T05:18:17;7.28;;;4.82;;
40515;SDS011;26216;53.724;9.898;2022-12-18T05:20:43;8.63;;;4.95;;
40515;SDS011;26216;53.724;9.898;2022-12-18T05:23:09;8.05;;;5.55;;
40515;SDS011;26216;53.724;9.898;2022-12-18T05:25:35;7.80;;;5.18;;
40515;SDS011;26216;53.724;9.898;2022-12-18T05:28:01;8.23;;;5.30;;
40515;SDS011;26216;53.724;9.898;2022-12-18T05:30:26;8.15;;;4.90;;
40515;SDS011;26216;53.724;9.898;2022-12-18T05:32:53;8.07;;;5.40;;
40515;SDS011;26216;53.724;9.898;2022-12-18T05:35:19;8.63;;;5.20;;
40515;SDS011;26216;53.724;9.898;2022-12-18T05:37:45;9.10;;;6.05;;
40515;SDS011;26216;53.724;9.898;2022-12-18T05:40:11;8.02;;;5.00;;
40515;SDS011;26216;53.724;9.898;2022-12-18T05:42:38;8.73;;;5.78;;
40515;SDS011;26216;53.724;9.898;2022-12-18T05:45:04;9.10;;;5.50;;
40515;SDS011;26216;53.724;9.898;2022-12-18T05:47:30;9.75;;;5.30;;
40515;SDS011;26216;53.724;9.898;2022-12-18T05:49:56;8.00;;;5.72;;
40515;SDS011;26216;53.724;9.898;2022-12-18T05:52:22;11.18;;;7.07;;
40515;SDS011;26216;53.724;9.898;2022-12-18T05:54:48;10.25;;;6.38;;
40515;SDS011;26216;53.724;9.898;2022-12-18T05:57:14;10.10;;;5.90;;
40515;SDS011;26216;53.724;9.898;2022-12-18T05:59:40;9.20;;;5.90;;
40515;SDS011;26216;53.724;9.898;2022-12-18T06:02:06;7.90;;;5.05;;
40515;SDS011;26216;53.724;9.898;2022-12-18T06:04:31;8.18;;;5.13;;
40515;SDS011;26216;53.724;9.898;2022-12-18T06:06:58;9.35;;;5.95;;
40515;SDS011;26216;53.724;9.898;2022-12-18T06:09:23;7.93;;;5.28;;
40515;SDS011;26216;53.724;9.898;2022-12-18T06:11:50;9.07;;;5.55;;
40515;SDS011;26216;53.724;9.898;2022-12-18T06:14:17;10.52;;;5.47;;
40515;SDS011;26216;53.724;9.898;2022-12-18T06:16:43;8.57;;;5.18;;
40515;SDS011;26216;53.724;9.898;2022-12-18T06:19:12;8.23;;;5.25;;
40515;SDS011;26216;53.724;9.898;2022-12-18T06:21:40;7.80;;;5.03;;
40515;SDS011;26216;53.724;9.898;2022-12-18T06:24:07;8.65;;;5.30;;
40515;SDS011;26216;53.724;9.898;2022-12-18T06:26:33;9.18;;;5.25;;
40515;SDS011;26216;53.724;9.898;2022-12-18T06:28:58;8.60;;;4.93;;
40515;SDS011;26216;53.724;9.898;2022-12-18T06:31:25;8.77;;;4.90;;
40515;SDS011;26216;53.724;9.898;2022-12-18T06:33:51;8.10;;;5.20;;
40515;SDS011;26216;53.724;9.898;2022-12-18T06:36:16;10.27;;;5.07;;
40515;SDS011;26216;53.724;9.898;2022-12-18T06:38:43;7.20;;;4.72;;
40515;SDS011;26216;53.724;9.898;2022-12-18T06:41:10;8.77;;;5.63;;
40515;SDS011;26216;53.724;9.898;2022-12-18T06:43:39;8.57;;;5.03;;
40515;SDS011;26216;53.724;9.898;2022-12-18T06:46:06;9.25;;;5.28;;
40515;SDS011;26216;53.724;9.898;2022-12-18T06:48:32;7.43;;;4.95;;
40515;SDS011;26216;53.724;9.898;2022-12-18T06:50:58;10.88;;;5.85;;
40515;SDS011;26216;53.724;9.898;2022-12-18T06:53:24;8.20;;;5.30;;
40515;SDS011;26216;53.724;9.898;2022-12-18T06:55:50;9.40;;;6.13;;
40515;SDS011;26216;53.724;9.898;2022-12-18T06:58:16;8.18;;;5.38;;
40515;SDS011;26216;53.724;9.898;2022-12-18T07:00:42;9.52;;;5.63;;
40515;SDS011;26216;53.724;9.898;2022-12-18T07:03:08;9.60;;;5.82;;
40515;SDS011;26216;53.724;9.898;2022-12-18T07:05:34;10.43;;;5.68;;
40515;SDS011;26216;53.724;9.898;2022-12-18T07:08:04;9.40;;;6.30;;
40515;SDS011;26216;53.724;9.898;2022-12-18T07:10:30;8.95;;;5.15;;
40515;SDS011;26216;53.724;9.898;2022-12-18T07:12:56;7.63;;;5.03;;
40515;SDS011;26216;53.724;9.898;2022-12-18T07:15:21;9.02;;;5.47;;
40515;SDS011;26216;53.724;9.898;2022-12-18T07:17:47;8.50;;;5.53;;
40515;SDS011;26216;53.724;9.898;2022-12-18T07:20:13;8.02;;;5.13;;
40515;SDS011;26216;53.724;9.898;2022-12-18T07:22:39;10.38;;;6.30;;
40515;SDS011;26216;53.724;9.898;2022-12-18T07:25:05;9.45;;;5.18;;
40515;SDS011;26216;53.724;9.898;2022-12-18T07:27:31;10.13;;;5.50;;
40515;SDS011;26216;53.724;9.898;2022-12-18T07:29:57;8.23;;;5.22;;
40515;SDS011;26216;53.724;9.898;2022-12-18T07:32:23;8.70;;;5.18;;
40515;SDS011;26216;53.724;9.898;2022-12-18T07:34:49;9.65;;;5.40;;
40515;SDS011;26216;53.724;9.898;2022-12-18T07:37:14;9.40;;;5.10;;
40515;SDS011;26216;53.724;9.898;2022-12-18T07:39:40;8.45;;;5.13;;
40515;SDS011;26216;53.724;9.898;2022-12-18T07:42:06;10.65;;;6.00;;
40515;SDS011;26216;53.724;9.898;2022-12-18T07:44:50;8.98;;;5.50;;
40515;SDS011;26216;53.724;9.898;2022-12-18T07:47:16;8.27;;;4.75;;
40515;SDS011;26216;53.724;9.898;2022-12-18T07:49:42;8.60;;;5.47;;
40515;SDS011;26216;53.724;9.898;2022-12-18T07:52:08;14.35;;;7.97;;
40515;SDS011;26216;53.724;9.898;2022-12-18T07:54:34;15.85;;;9.40;;
40515;SDS011;26216;53.724;9.898;2022-12-18T07:57:00;19.83;;;10.55;;
40515;SDS011;26216;53.724;9.898;2022-12-18T07:59:26;20.42;;;10.80;;
40515;SDS011;26216;53.724;9.898;2022-12-18T08:01:52;22.52;;;11.43;;
40515;SDS011;26216;53.724;9.898;2022-12-18T08:04:18;23.33;;;12.50;;
40515;SDS011;26216;53.724;9.898;2022-12-18T08:06:44;22.52;;;12.20;;
40515;SDS011;26216;53.724;9.898;2022-12-18T08:09:10;22.80;;;13.00;;
40515;SDS011;26216;53.724;9.898;2022-12-18T08:11:36;19.77;;;12.65;;
40515;SDS011;26216;53.724;9.898;2022-12-18T08:14:02;18.48;;;11.10;;
40515;SDS011;26216;53.724;9.898;2022-12-18T08:16:28;18.40;;;11.80;;
40515;SDS011;26216;53.724;9.898;2022-12-18T08:18:56;14.88;;;10.00;;
40515;SDS011;26216;53.724;9.898;2022-12-18T08:21:26;13.55;;;8.35;;
40515;SDS011;26216;53.724;9.898;2022-12-18T08:23:55;12.90;;;7.50;;
40515;SDS011;26216;53.724;9.898;2022-12-18T08:26:22;12.10;;;6.93;;
40515;SDS011;26216;53.724;9.898;2022-12-18T08:28:50;9.43;;;6.22;;
40515;SDS011;26216;53.724;9.898;2022-12-18T08:31:17;12.05;;;7.70;;
40515;SDS011;26216;53.724;9.898;2022-12-18T08:33:43;10.88;;;6.63;;
40515;SDS011;26216;53.724;9.898;2022-12-18T08:36:09;11.90;;;7.20;;
40515;SDS011;26216;53.724;9.898;2022-12-18T08:38:35;11.07;;;6.53;;
40515;SDS011;26216;53.724;9.898;2022-12-18T08:41:02;12.35;;;7.28;;
40515;SDS011;26216;53.724;9.898;2022-12-18T08:43:30;12.98;;;7.18;;
40515;SDS011;26216;53.724;9.898;2022-12-18T08:46:14;11.60;;;7.43;;
40515;SDS011;26216;53.724;9.898;2022-12-18T08:48:40;13.55;;;8.18;;
40515;SDS011;26216;53.724;9.898;2022-12-18T08:51:06;12.07;;;6.75;;
40515;SDS011;26216;53.724;9.898;2022-12-18T08:53:32;11.95;;;6.28;;
40515;SDS011;26216;53.724;9.898;2022-12-18T08:55:57;10.50;;;7.13;;
40515;SDS011;26216;53.724;9.898;2022-12-18T08:58:23;11.13;;;6.63;;
40515;SDS011;26216;53.724;9.898;2022-12-18T09:00:49;10.80;;;6.85;;
40515;SDS011;26216;53.724;9.898;2022-12-18T09:03:17;11.52;;;7.25;;
40515;SDS011;26216;53.724;9.898;2022-12-18T09:05:45;10.85;;;6.57;;
40515;SDS011;26216;53.724;9.898;2022-12-18T09:08:12;11.27;;;7.18;;
40515;SDS011;26216;53.724;9.898;2022-12-18T09:10:41;10.90;;;6.70;;
40515;SDS011;26216;53.724;9.898;2022-12-18T09:13:09;11.60;;;6.87;;
40515;SDS011;26216;53.724;9.898;2022-12-18T09:15:49;10.40;;;6.82;;
40515;SDS011;26216;53.724;9.898;2022-12-18T09:18:18;10.40;;;6.23;;
40515;SDS011;26216;53.724;9.898;2022-12-18T09:20:45;10.40;;;6.70;;
40515;SDS011;26216;53.724;9.898;2022-12-18T09:23:12;8.75;;;5.68;;
40515;SDS011;26216;53.724;9.898;2022-12-18T09:25:38;11.63;;;7.20;;
40515;SDS011;26216;53.724;9.898;2022-12-18T09:28:13;12.05;;;6.57;;
40515;SDS011;26216;53.724;9.898;2022-12-18T09:30:48;11.57;;;6.68;;
40515;SDS011;26216;53.724;9.898;2022-12-18T09:33:14;10.05;;;6.07;;
40515;SDS011;26216;53.724;9.898;2022-12-18T09:35:42;11.77;;;7.47;;
40515;SDS011;26216;53.724;9.898;2022-12-18T09:38:12;12.95;;;7.88;;
40515;SDS011;26216;53.724;9.898;2022-12-18T09:40:47;14.95;;;8.23;;
40515;SDS011;26216;53.724;9.898;2022-12-18T09:43:22;13.10;;;7.78;;
40515;SDS011;26216;53.724;9.898;2022-12-18T09:45:55;11.73;;;7.40;;
40515;SDS011;26216;53.724;9.898;2022-12-18T09:48:26;14.05;;;7.70;;
40515;SDS011;26216;53.724;9.898;2022-12-18T09:51:03;10.40;;;6.72;;
40515;SDS011;26216;53.724;9.898;2022-12-18T09:53:36;11.82;;;7.32;;
40515;SDS011;26216;53.724;9.898;2022-12-18T09:56:06;10.35;;;6.65;;
40515;SDS011;26216;53.724;9.898;2022-12-18T09:58:46;12.43;;;7.85;;
40515;SDS011;26216;53.724;9.898;2022-12-18T10:01:24;12.30;;;8.15;;
40515;SDS011;26216;53.724;9.898;2022-12-18T10:03:52;12.30;;;7.53;;
40515;SDS011;26216;53.724;9.898;2022-12-18T10:08:57;11.13;;;6.70;;
40515;SDS011;26216;53.724;9.898;2022-12-18T10:11:44;13.75;;;7.20;;
40515;SDS011;26216;53.724;9.898;2022-12-18T10:14:41;11.32;;;7.32;;
40515;SDS011;26216;53.724;9.898;2022-12-18T10:17:19;11.07;;;6.63;;
40515;SDS011;26216;53.724;9.898;2022-12-18T10:23:26;14.23;;;7.00;;
40515;SDS011;26216;53.724;9.898;2022-12-18T10:26:03;10.38;;;6.10;;
40515;SDS011;26216;53.724;9.898;2022-12-18T10:28:31;8.50;;;5.82;;
40515;SDS011;26216;53.724;9.898;2022-12-18T10:31:00;11.60;;;6.38;;
40515;SDS011;26216;53.724;9.898;2022-12-18T10:33:30;10.45;;;5.97;;
40515;SDS011;26216;53.724;9.898;2022-12-18T10:35:57;9.60;;;6.20;;
40515;SDS011;26216;53.724;9.898;2022-12-18T10:38:25;10.82;;;6.72;;
40515;SDS011;26216;53.724;9.898;2022-12-18T10:41:05;10.25;;;6.88;;
40515;SDS011;26216;53.724;9.898;2022-12-18T10:44:15;11.18;;;7.25;;
40515;SDS011;26216;53.724;9.898;2022-12-18T10:46:41;11.70;;;7.07;;
40515;SDS011;26216;53.724;9.898;2022-12-18T10:49:18;10.98;;;6.95;;
40515;SDS011;26216;53.724;9.898;2022-12-18T10:51:46;12.45;;;7.53;;
40515;SDS011;26216;53.724;9.898;2022-12-18T10:54:16;10.63;;;6.43;;
40515;SDS011;26216;53.724;9.898;2022-12-18T10:56:46;10.70;;;6.85;;
40515;SDS011;26216;53.724;9.898;2022-12-18T10:59:13;10.30;;;6.88;;
40515;SDS011;26216;53.724;9.898;2022-12-18T11:01:51;10.38;;;6.65;;
40515;SDS011;26216;53.724;9.898;2022-12-18T11:04:24;12.13;;;6.65;;
40515;SDS011;26216;53.724;9.898;2022-12-18T11:06:54;10.75;;;7.03;;
40515;SDS011;26216;53.724;9.898;2022-12-18T11:09:23;8.83;;;5.77;;
40515;SDS011;26216;53.724;9.898;2022-12-18T11:11:54;9.63;;;6.85;;
40515;SDS011;26216;53.724;9.898;2022-12-18T11:14:23;12.07;;;7.18;;
40515;SDS011;26216;53.724;9.898;2022-12-18T11:16:59;11.15;;;6.88;;
40515;SDS011;26216;53.724;9.898;2022-12-18T11:19:35;9.70;;;6.18;;
40515;SDS011;26216;53.724;9.898;2022-12-18T11:24:53;10.52;;;6.55;;
40515;SDS011;26216;53.724;9.898;2022-12-18T11:27:24;12.10;;;7.45;;
40515;SDS011;26216;53.724;9.898;2022-12-18T11:29:51;9.80;;;6.63;;
40515;SDS011;26216;53.724;9.898;2022-12-18T11:32:31;12.05;;;7.28;;
40515;SDS011;26216;53.724;9.898;2022-12-18T11:37:54;9.05;;;6.35;;
40515;SDS011;26216;53.724;9.898;2022-12-18T11:40:35;9.07;;;6.15;;
40515;SDS011;26216;53.724;9.898;2022-12-18T11:43:08;10.45;;;5.97;;
40515;SDS011;26216;53.724;9.898;2022-12-18T11:45:47;10.85;;;6.32;;
40515;SDS011;26216;53.724;9.898;2022-12-18T11:48:23;11.70;;;6.65;;
40515;SDS011;26216;53.724;9.898;2022-12-18T11:51:04;8.25;;;5.88;;
40515;SDS011;26216;53.724;9.898;2022-12-18T11:53:36;10.27;;;6.65;;
40515;SDS011;26216;53.724;9.898;2022-12-18T11:56:23;9.50;;;6.32;;
40515;SDS011;26216;53.724;9.898;2022-12-18T11:59:04;10.63;;;6.65;;
40515;SDS011;26216;53.724;9.898;2022-12-18T12:01:51;8.85;;;5.60;;
40515;SDS011;26216;53.724;9.898;2022-12-18T12:04:31;10.30;;;6.32;;
40515;SDS011;26216;53.724;9.898;2022-12-18T12:13:03;10.40;;;7.43;;
40515;SDS011;26216;53.724;9.898;2022-12-18T12:21:55;11.60;;;7.85;;
40515;SDS011;26216;53.724;9.898;2022-12-18T12:32:12;12.38;;;7.82;;
40515;SDS011;26216;53.724;9.898;2022-12-18T12:37:33;11.38;;;7.65;;
40515;SDS011;26216;53.724;9.898;2022-12-18T12:40:18;11.80;;;7.82;;
40515;SDS011;26216;53.724;9.898;2022-12-18T12:42:46;12.73;;;7.75;;
40515;SDS011;26216;53.724;9.898;2022-12-18T12:49:12;14.27;;;8.63;;
40515;SDS011;26216;53.724;9.898;2022-12-18T12:51:08;13.68;;;8.18;;
40515;SDS011;26216;53.724;9.898;2022-12-18T12:53:49;13.32;;;7.60;;
40515;SDS011;26216;53.724;9.898;2022-12-18T12:56:18;12.48;;;7.93;;
40515;SDS011;26216;53.724;9.898;2022-12-18T13:01:58;10.85;;;7.00;;
40515;SDS011;26216;53.724;9.898;2022-12-18T13:04:44;12.05;;;7.50;;
40515;SDS011;26216;53.724;9.898;2022-12-18T13:07:26;12.07;;;7.30;;
40515;SDS011;26216;53.724;9.898;2022-12-18T13:12:51;11.55;;;7.53;;
40515;SDS011;26216;53.724;9.898;2022-12-18T13:15:27;12.55;;;7.65;;
40515;SDS011;26216;53.724;9.898;2022-12-18T13:20:35;11.13;;;7.15;;
40515;SDS011;26216;53.724;9.898;2022-12-18T13:23:45;11.32;;;7.15;;
40515;SDS011;26216;53.724;9.898;2022-12-18T13:36:41;13.27;;;7.80;;
40515;SDS011;26216;53.724;9.898;2022-12-18T13:41:39;11.45;;;7.57;;
40515;SDS011;26216;53.724;9.898;2022-12-18T13:44:24;14.20;;;7.65;;
40515;SDS011;26216;53.724;9.898;2022-12-18T13:49:38;11.50;;;6.75;;
40515;SDS011;26216;53.724;9.898;2022-12-18T13:52:16;12.18;;;7.30;;
40515;SDS011;26216;53.724;9.898;2022-12-18T13:54:49;12.88;;;6.90;;
40515;SDS011;26216;53.724;9.898;2022-12-18T13:57:34;15.02;;;7.80;;
40515;SDS011;26216;53.724;9.898;2022-12-18T14:00:40;12.73;;;7.82;;
40515;SDS011;26216;53.724;9.898;2022-12-18T14:02:58;12.55;;;7.35;;
40515;SDS011;26216;53.724;9.898;2022-12-18T14:07:52;13.25;;;8.07;;
40515;SDS011;26216;53.724;9.898;2022-12-18T14:10:19;14.73;;;8.65;;
40515;SDS011;26216;53.724;9.898;2022-12-18T14:12:47;16.77;;;9.80;;
40515;SDS011;26216;53.724;9.898;2022-12-18T14:15:31;14.75;;;9.25;;
40515;SDS011;26216;53.724;9.898;2022-12-18T14:20:41;17.70;;;10.23;;
40515;SDS011;26216;53.724;9.898;2022-12-18T14:23:32;16.90;;;10.73;;
40515;SDS011;26216;53.724;9.898;2022-12-18T14:32:06;18.38;;;11.07;;
40515;SDS011;26216;53.724;9.898;2022-12-18T14:34:36;17.38;;;10.48;;
40515;SDS011;26216;53.724;9.898;2022-12-18T14:37:02;18.08;;;10.02;;
40515;SDS011;26216;53.724;9.898;2022-12-18T14:39:28;18.40;;;10.32;;
40515;SDS011;26216;53.724;9.898;2022-12-18T14:41:54;17.50;;;10.40;;
40515;SDS011;26216;53.724;9.898;2022-12-18T14:44:20;19.20;;;9.75;;
40515;SDS011;26216;53.724;9.898;2022-12-18T14:46:47;15.93;;;9.07;;
40515;SDS011;26216;53.724;9.898;2022-12-18T14:49:26;17.27;;;9.15;;
40515;SDS011;26216;53.724;9.898;2022-12-18T14:52:01;14.48;;;8.27;;
40515;SDS011;26216;53.724;9.898;2022-12-18T14:54:32;15.90;;;8.68;;
40515;SDS011;26216;53.724;9.898;2022-12-18T14:57:35;17.45;;;9.18;;
40515;SDS011;26216;53.724;9.898;2022-12-18T15:00:07;17.00;;;9.23;;
40515;SDS011;26216;53.724;9.898;2022-12-18T15:02:50;16.15;;;9.50;;
40515;SDS011;26216;53.724;9.898;2022-12-18T15:05:20;13.13;;;8.07;;
40515;SDS011;26216;53.724;9.898;2022-12-18T15:07:48;19.23;;;9.65;;
40515;SDS011;26216;53.724;9.898;2022-12-18T15:10:28;15.70;;;8.90;;
40515;SDS011;26216;53.724;9.898;2022-12-18T15:20:32;21.90;;;12.45;;
40515;SDS011;26216;53.724;9.898;2022-12-18T15:23:20;18.08;;;10.93;;
40515;SDS011;26216;53.724;9.898;2022-12-18T15:25:55;19.95;;;10.60;;
40515;SDS011;26216;53.724;9.898;2022-12-18T15:28:24;18.10;;;10.07;;
40515;SDS011;26216;53.724;9.898;2022-12-18T15:36:09;19.75;;;10.50;;
40515;SDS011;26216;53.724;9.898;2022-12-18T15:38:36;22.27;;;11.48;;
40515;SDS011;26216;53.724;9.898;2022-12-18T15:41:03;21.80;;;12.60;;
40515;SDS011;26216;53.724;9.898;2022-12-18T15:43:41;22.42;;;11.02;;
40515;SDS011;26216;53.724;9.898;2022-12-18T15:46:14;19.95;;;11.32;;
40515;SDS011;26216;53.724;9.898;2022-12-18T15:48:44;22.50;;;11.73;;
40515;SDS011;26216;53.724;9.898;2022-12-18T15:51:16;24.58;;;12.52;;
40515;SDS011;26216;53.724;9.898;2022-12-18T15:53:42;21.95;;;11.90;;
40515;SDS011;26216;53.724;9.898;2022-12-18T15:56:12;22.25;;;10.95;;
40515;SDS011;26216;53.724;9.898;2022-12-18T15:58:58;20.20;;;11.05;;
40515;SDS011;26216;53.724;9.898;2022-12-18T16:01:28;24.65;;;12.43;;
40515;SDS011;26216;53.724;9.898;2022-12-18T16:04:00;22.15;;;11.80;;
40515;SDS011;26216;53.724;9.898;2022-12-18T16:06:27;22.42;;;11.73;;
40515;SDS011;26216;53.724;9.898;2022-12-18T16:08:53;27.10;;;14.48;;
40515;SDS011;26216;53.724;9.898;2022-12-18T16:11:21;21.65;;;12.50;;
40515;SDS011;26216;53.724;9.898;2022-12-18T16:14:06;22.15;;;11.80;;
40515;SDS011;26216;53.724;9.898;2022-12-18T16:16:56;23.40;;;11.55;;
40515;SDS011;26216;53.724;9.898;2022-12-18T16:19:24;20.15;;;11.68;;
40515;SDS011;26216;53.724;9.898;2022-12-18T16:21:51;20.10;;;10.57;;
40515;SDS011;26216;53.724;9.898;2022-12-18T16:24:21;20.17;;;11.10;;
40515;SDS011;26216;53.724;9.898;2022-12-18T16:26:51;22.27;;;12.38;;
40515;SDS011;26216;53.724;9.898;2022-12-18T16:29:18;20.30;;;10.52;;
40515;SDS011;26216;53.724;9.898;2022-12-18T16:31:54;24.85;;;12.05;;
40515;SDS011;26216;53.724;9.898;2022-12-18T16:34:29;20.23;;;10.65;;
40515;SDS011;26216;53.724;9.898;2022-12-18T16:37:01;19.20;;;9.93;;
40515;SDS011;26216;53.724;9.898;2022-12-18T16:39:33;22.98;;;11.48;;
40515;SDS011;26216;53.724;9.898;2022-12-18T16:42:00;20.70;;;11.18;;
40515;SDS011;26216;53.724;9.898;2022-12-18T16:44:27;22.42;;;11.85;;
40515;SDS011;26216;53.724;9.898;2022-12-18T16:46:53;22.00;;;11.13;;
40515;SDS011;26216;53.724;9.898;2022-12-18T16:49:20;24.10;;;12.98;;